Time;durP1;ratioP1;P1;durP2;ratioP2;P2;SDS_P1;SDS_P2;PMS_P1;PMS_P2;Temp;Humidity;BMP_temperature;BMP_pressure;BME280_temperature;BME280_humidity;BME280_pressure;Samples;Min_cycle;Max_cycle;Signal;HPM_P1;HPM_P2
2022/04/06 00:00:08;;;;;;;24.27;4.87;;;9.80;99.90;;;;;;5099764;27;20188;-62
2022/04/06 00:02:39;;;;;;;15.67;5.20;;;9.80;99.90;;;;;;5101744;28;20767;-62
2022/04/06 00:05:09;;;;;;;20.23;4.23;;;9.80;99.90;;;;;;5098076;28;20274;-62
2022/04/06 00:07:40;;;;;;;16.80;4.40;;;9.80;99.90;;;;;;5104743;27;21431;-62
2022/04/06 00:10:11;;;;;;;27.30;5.07;;;9.80;99.90;;;;;;5098368;28;20201;-61
2022/04/06 00:12:40;;;;;;;15.00;4.40;;;9.80;99.90;;;;;;5100338;28;20641;-62
2022/04/06 00:15:11;;;;;;;17.73;5.03;;;9.80;99.90;;;;;;5102799;28;20257;-62
2022/04/06 00:17:41;;;;;;;16.87;4.20;;;9.80;99.90;;;;;;5101356;28;20230;-62
2022/04/06 00:20:10;;;;;;;15.93;4.20;;;9.80;99.90;;;;;;5102207;27;20195;-61
2022/04/06 00:22:40;;;;;;;17.93;4.30;;;9.80;99.90;;;;;;5106874;27;20187;-62
2022/04/06 00:25:09;;;;;;;13.20;4.30;;;9.80;99.90;;;;;;5103217;27;20607;-62
2022/04/06 00:27:37;;;;;;;14.67;3.80;;;9.80;99.90;;;;;;5108051;27;20482;-61
2022/04/06 00:30:06;;;;;;;11.23;3.43;;;9.80;99.90;;;;;;5101253;28;20222;-62
2022/04/06 00:32:35;;;;;;;15.37;3.70;;;9.80;99.90;;;;;;5103963;27;20195;-62
2022/04/06 00:37:52;;;;;;;14.73;4.17;;;9.70;99.90;;;;;;5102980;28;20197;-62
2022/04/06 00:40:22;;;;;;;11.07;3.43;;;9.70;99.90;;;;;;5105471;27;20191;-62
2022/04/06 00:42:51;;;;;;;17.77;3.87;;;9.70;99.90;;;;;;5100634;28;20230;-61
2022/04/06 00:45:19;;;;;;;19.43;3.50;;;9.70;99.90;;;;;;5118294;27;20186;-62
2022/04/06 00:47:48;;;;;;;11.23;3.20;;;9.70;99.90;;;;;;5101896;27;20549;-62
2022/04/06 00:50:18;;;;;;;7.67;2.57;;;9.70;99.90;;;;;;5110598;27;20199;-61
2022/04/06 00:52:48;;;;;;;11.40;2.97;;;9.70;99.90;;;;;;5102729;27;20768;-62
2022/04/06 00:55:17;;;;;;;7.20;2.80;;;9.70;99.90;;;;;;5107011;27;20293;-61
2022/04/06 00:57:46;;;;;;;6.77;2.70;;;9.80;99.90;;;;;;5103835;27;20688;-62
2022/04/06 01:00:15;;;;;;;16.23;3.10;;;9.80;99.90;;;;;;5102153;27;20196;-61
2022/04/06 01:02:43;;;;;;;7.97;3.30;;;9.80;99.90;;;;;;5099885;28;20281;-62
2022/04/06 01:05:13;;;;;;;17.20;3.60;;;9.90;99.90;;;;;;5117642;27;20248;-62
2022/04/06 01:07:45;;;;;;;10.97;3.13;;;9.80;99.90;;;;;;5103353;27;20203;-62
2022/04/06 01:10:13;;;;;;;10.67;3.10;;;9.80;99.90;;;;;;5101253;28;20201;-61
2022/04/06 01:12:42;;;;;;;10.73;3.30;;;9.80;99.90;;;;;;5097217;28;20658;-61
2022/04/06 01:15:10;;;;;;;14.67;3.47;;;9.70;99.90;;;;;;5104098;27;20211;-62
2022/04/06 01:17:39;;;;;;;20.10;3.90;;;9.70;99.90;;;;;;5111175;27;20629;-61
2022/04/06 01:20:10;;;;;;;14.47;4.47;;;9.80;99.90;;;;;;5115610;27;20364;-62
2022/04/06 01:22:40;;;;;;;12.13;4.00;;;9.80;99.90;;;;;;5104497;28;20208;-62
2022/04/06 01:25:11;;;;;;;9.70;3.20;;;9.70;99.90;;;;;;5099867;28;20793;-62
2022/04/06 01:27:39;;;;;;;18.00;4.23;;;9.70;99.90;;;;;;5103593;28;20226;-62
2022/04/06 01:30:09;;;;;;;18.03;4.20;;;9.70;99.90;;;;;;5102755;28;20186;-62
2022/04/06 01:32:37;;;;;;;15.60;3.50;;;9.70;99.90;;;;;;5089187;28;20285;-62
2022/04/06 01:35:07;;;;;;;11.23;3.33;;;9.70;99.90;;;;;;5110259;27;20286;-62
2022/04/06 01:37:36;;;;;;;14.93;4.00;;;9.70;99.90;;;;;;5105179;27;20693;-62
2022/04/06 01:40:07;;;;;;;24.50;4.30;;;9.70;99.90;;;;;;5107470;27;20270;-62
2022/04/06 01:42:36;;;;;;;17.77;4.33;;;9.70;99.90;;;;;;5095836;28;20229;-62
2022/04/06 01:45:05;;;;;;;9.27;3.90;;;9.70;99.90;;;;;;5102621;28;20277;-61
2022/04/06 01:47:33;;;;;;;17.27;3.27;;;9.70;99.90;;;;;;5099871;28;20197;-61
2022/04/06 01:52:47;;;;;;;10.10;3.70;;;9.70;99.90;;;;;;5100432;28;20611;-61
2022/04/06 01:55:17;;;;;;;24.67;4.37;;;9.70;99.90;;;;;;5104189;28;20287;-62
2022/04/06 01:57:45;;;;;;;19.33;4.77;;;9.70;99.90;;;;;;5095152;28;20227;-62
2022/04/06 02:00:16;;;;;;;19.00;4.20;;;9.70;99.90;;;;;;5101660;28;20225;-61
2022/04/06 02:02:48;;;;;;;22.67;5.43;;;9.70;99.90;;;;;;5100775;28;20197;-61
2022/04/06 02:05:17;;;;;;;17.53;4.77;;;9.60;99.90;;;;;;5095181;28;20222;-61
2022/04/06 02:07:47;;;;;;;19.47;5.20;;;9.60;99.90;;;;;;5101877;28;20247;-62
2022/04/06 02:10:17;;;;;;;24.77;5.47;;;9.60;99.90;;;;;;5103457;28;20275;-62
2022/04/06 02:12:46;;;;;;;22.90;5.20;;;9.60;99.90;;;;;;5095100;28;20278;-61
2022/04/06 02:15:15;;;;;;;26.10;5.70;;;9.70;99.90;;;;;;5099657;28;20203;-62
2022/04/06 02:17:44;;;;;;;26.87;5.60;;;9.60;99.90;;;;;;5102393;28;20203;-62
2022/04/06 02:20:13;;;;;;;20.70;5.03;;;9.60;99.90;;;;;;5101912;28;20205;-61
2022/04/06 02:22:48;;;;;;;19.27;5.33;;;9.60;99.90;;;;;;5094391;28;20199;-62
2022/04/06 02:25:17;;;;;;;27.23;5.00;;;9.50;99.90;;;;;;5099297;28;20678;-62
2022/04/06 02:27:47;;;;;;;23.53;5.40;;;9.50;99.90;;;;;;5098017;28;20236;-62
2022/04/06 02:30:17;;;;;;;28.13;5.70;;;9.50;99.90;;;;;;5099202;28;20205;-61
2022/04/06 02:32:45;;;;;;;15.47;4.93;;;9.50;99.90;;;;;;5112714;28;20191;-62
2022/04/06 02:35:14;;;;;;;27.43;5.70;;;9.50;99.90;;;;;;5098089;28;20875;-61
2022/04/06 02:37:44;;;;;;;21.37;4.97;;;9.50;99.90;;;;;;5097219;28;20237;-62
2022/04/06 02:40:14;;;;;;;22.80;5.30;;;9.50;99.90;;;;;;5096902;28;20209;-61
2022/04/06 02:42:45;;;;;;;23.10;5.30;;;9.50;99.90;;;;;;5102107;28;20205;-62
2022/04/06 02:45:14;;;;;;;18.23;5.27;;;9.50;99.90;;;;;;5099641;28;20201;-62
2022/04/06 02:47:47;;;;;;;17.50;5.10;;;9.50;99.90;;;;;;5098051;28;20687;-62
2022/04/06 02:50:16;;;;;;;19.50;4.53;;;9.50;99.90;;;;;;5103267;28;20616;-62
2022/04/06 02:52:45;;;;;;;18.50;5.00;;;9.50;99.90;;;;;;5101596;28;20207;-61
2022/04/06 02:55:13;;;;;;;17.13;4.87;;;9.40;99.90;;;;;;5100852;28;20299;-62
2022/04/06 02:57:43;;;;;;;19.87;5.63;;;9.40;99.90;;;;;;5101997;28;20252;-61
2022/04/06 03:00:13;;;;;;;22.63;5.20;;;9.40;99.90;;;;;;5094397;28;20191;-61
2022/04/06 03:02:46;;;;;;;28.90;5.20;;;9.50;99.90;;;;;;5103797;28;20265;-61
2022/04/06 03:05:15;;;;;;;22.97;4.80;;;9.50;99.90;;;;;;5103322;28;20198;-61
2022/04/06 03:07:43;;;;;;;25.40;4.93;;;9.40;99.90;;;;;;5105833;27;20653;-62
2022/04/06 03:10:12;;;;;;;19.20;5.10;;;9.40;99.90;;;;;;5099099;28;20195;-62
2022/04/06 03:12:40;;;;;;;23.83;4.87;;;9.40;99.90;;;;;;5102626;27;20199;-62
2022/04/06 03:15:11;;;;;;;19.13;4.97;;;9.40;99.90;;;;;;5101375;28;20194;-61
2022/04/06 03:17:39;;;;;;;15.80;4.47;;;9.40;99.90;;;;;;5107905;27;20252;-62
2022/04/06 03:20:10;;;;;;;15.90;5.33;;;9.40;99.90;;;;;;5104460;28;20289;-61
2022/04/06 03:22:38;;;;;;;16.87;4.77;;;9.40;99.90;;;;;;5103962;28;20817;-61
2022/04/06 03:25:08;;;;;;;18.83;4.73;;;9.40;99.90;;;;;;5103237;27;20290;-62
2022/04/06 03:27:37;;;;;;;16.27;4.17;;;9.30;99.90;;;;;;5100557;27;20310;-61
2022/04/06 03:30:11;;;;;;;17.77;4.17;;;9.30;99.90;;;;;;5104155;27;20210;-62
2022/04/06 03:32:40;;;;;;;16.40;3.83;;;9.40;99.90;;;;;;5104939;28;20195;-62
2022/04/06 03:35:09;;;;;;;20.03;4.60;;;9.40;99.90;;;;;;5105877;28;20202;-61
2022/04/06 03:37:38;;;;;;;16.90;4.53;;;9.40;99.90;;;;;;5098404;27;20600;-61
2022/04/06 03:40:08;;;;;;;17.70;4.13;;;9.40;99.90;;;;;;5099503;27;20694;-61
2022/04/06 03:42:37;;;;;;;15.80;3.63;;;9.40;99.90;;;;;;5094573;27;20551;-61
2022/04/06 03:45:06;;;;;;;9.80;3.20;;;9.40;99.90;;;;;;5105485;28;20578;-61
2022/04/06 03:47:37;;;;;;;15.03;3.73;;;9.40;99.90;;;;;;5101965;27;20198;-61
2022/04/06 03:50:07;;;;;;;15.17;3.50;;;9.40;99.90;;;;;;5107134;28;20209;-61
2022/04/06 03:52:35;;;;;;;18.50;3.70;;;9.40;99.90;;;;;;5099987;28;20234;-62
2022/04/06 03:55:05;;;;;;;11.27;4.13;;;9.40;99.90;;;;;;5098455;28;20212;-62
2022/04/06 03:57:34;;;;;;;13.17;3.60;;;9.40;99.90;;;;;;5102758;28;20257;-62
2022/04/06 04:00:04;;;;;;;15.60;3.20;;;9.40;99.90;;;;;;5103443;28;20199;-61
2022/04/06 04:02:33;;;;;;;17.67;3.47;;;9.40;99.90;;;;;;5098276;28;20225;-62
2022/04/06 04:05:03;;;;;;;17.30;3.80;;;9.50;99.90;;;;;;5094901;27;20186;-61
2022/04/06 04:07:37;;;;;;;20.57;4.17;;;9.40;99.90;;;;;;5098948;28;20205;-62
2022/04/06 04:10:07;;;;;;;8.43;3.13;;;9.40;99.90;;;;;;5102674;28;20214;-62
2022/04/06 04:12:36;;;;;;;16.57;3.97;;;9.40;99.90;;;;;;5116167;27;20278;-62
2022/04/06 04:15:05;;;;;;;12.53;3.30;;;9.40;99.90;;;;;;5098766;28;20217;-61
2022/04/06 04:17:34;;;;;;;15.50;3.70;;;9.40;99.90;;;;;;5098632;28;20222;-62
2022/04/06 04:20:04;;;;;;;15.43;3.83;;;9.40;99.90;;;;;;5101440;27;20289;-61
2022/04/06 04:22:33;;;;;;;11.97;3.70;;;9.40;99.90;;;;;;5104466;28;20727;-61
2022/04/06 04:25:01;;;;;;;11.80;3.50;;;9.40;99.90;;;;;;5098937;27;20731;-62
2022/04/06 04:27:30;;;;;;;9.03;2.97;;;9.40;99.90;;;;;;5097517;28;20199;-61
2022/04/06 04:29:59;;;;;;;11.37;3.10;;;9.40;99.90;;;;;;5103204;28;20221;-61
2022/04/06 04:32:35;;;;;;;20.03;3.33;;;9.40;99.90;;;;;;5104548;27;20190;-62
2022/04/06 04:35:06;;;;;;;12.80;2.90;;;9.40;99.90;;;;;;5098081;27;20202;-62
2022/04/06 04:37:36;;;;;;;12.93;2.87;;;9.30;99.90;;;;;;5101524;28;20233;-61
2022/04/06 04:40:05;;;;;;;11.87;2.60;;;9.40;99.90;;;;;;5095945;28;20192;-62
2022/04/06 04:42:34;;;;;;;9.90;3.00;;;9.40;99.90;;;;;;5103188;27;20294;-61
2022/04/06 04:45:03;;;;;;;10.43;3.03;;;9.40;99.90;;;;;;5098482;28;20554;-62
2022/04/06 04:47:32;;;;;;;13.03;3.30;;;9.40;99.90;;;;;;5104576;27;20215;-62
2022/04/06 04:50:00;;;;;;;8.10;2.40;;;9.40;99.90;;;;;;5104468;28;20269;-62
2022/04/06 04:52:30;;;;;;;14.93;2.70;;;9.40;99.90;;;;;;5104557;28;20216;-61
2022/04/06 04:54:59;;;;;;;10.20;2.80;;;9.30;99.90;;;;;;5098693;28;20194;-61
2022/04/06 04:57:27;;;;;;;15.40;2.73;;;9.40;99.90;;;;;;5098088;28;20209;-62
2022/04/06 04:59:55;;;;;;;11.17;2.87;;;9.30;99.90;;;;;;5102737;28;20179;-62
2022/04/06 05:02:24;;;;;;;10.40;2.70;;;9.40;99.90;;;;;;5094875;28;20191;-61
2022/04/06 05:04:52;;;;;;;11.53;3.33;;;9.40;99.90;;;;;;5103437;28;20278;-61
2022/04/06 05:07:20;;;;;;;12.37;3.00;;;9.40;99.90;;;;;;5101629;28;20678;-62
2022/04/06 05:09:50;;;;;;;12.80;3.57;;;9.40;99.90;;;;;;5104350;27;20286;-61
2022/04/06 05:12:19;;;;;;;12.80;3.07;;;9.20;99.90;;;;;;5099701;27;20187;-61
2022/04/06 05:14:47;;;;;;;12.10;2.90;;;9.20;99.90;;;;;;5094225;28;20196;-62
2022/04/06 05:17:16;;;;;;;11.00;3.00;;;9.20;99.90;;;;;;5095362;28;20326;-62
2022/04/06 05:19:47;;;;;;;11.70;3.50;;;9.20;99.90;;;;;;5090570;28;20232;-61
2022/04/06 05:22:15;;;;;;;10.80;3.00;;;9.20;99.90;;;;;;5101450;28;20197;-62
2022/04/06 05:24:44;;;;;;;16.13;3.10;;;9.10;99.90;;;;;;5098446;28;20226;-61
2022/04/06 05:27:14;;;;;;;16.23;3.17;;;9.10;99.90;;;;;;5097501;27;20747;-61
2022/04/06 05:29:42;;;;;;;13.03;3.67;;;9.10;99.90;;;;;;5099310;28;20248;-62
2022/04/06 05:32:11;;;;;;;16.77;3.07;;;9.10;99.90;;;;;;5107039;27;20718;-62
2022/04/06 05:34:39;;;;;;;12.03;2.93;;;9.20;99.90;;;;;;5103860;27;20195;-62
2022/04/06 05:37:07;;;;;;;12.83;2.90;;;9.10;99.90;;;;;;5099148;28;20209;-62
2022/04/06 05:39:36;;;;;;;7.93;2.80;;;9.20;99.90;;;;;;5104370;27;20620;-62
2022/04/06 05:42:05;;;;;;;10.80;3.00;;;9.20;99.90;;;;;;5102790;28;20201;-62
2022/04/06 05:44:34;;;;;;;10.77;2.90;;;9.20;99.90;;;;;;5102396;27;20884;-62
2022/04/06 05:47:03;;;;;;;11.47;3.27;;;9.30;99.90;;;;;;5110212;27;20275;-62
2022/04/06 05:49:31;;;;;;;11.23;2.70;;;9.20;99.90;;;;;;5106394;27;20222;-62
2022/04/06 05:52:00;;;;;;;10.87;2.93;;;9.30;99.90;;;;;;5094288;28;20687;-61
2022/04/06 05:54:28;;;;;;;12.63;2.77;;;9.30;99.90;;;;;;5105860;27;20205;-62
2022/04/06 05:56:56;;;;;;;8.80;2.57;;;9.40;99.90;;;;;;5098757;28;20196;-62
2022/04/06 05:59:25;;;;;;;9.40;2.63;;;9.40;99.90;;;;;;5098515;28;20228;-61
2022/04/06 06:01:54;;;;;;;11.80;3.03;;;9.40;99.90;;;;;;5104121;27;20225;-62
2022/04/06 06:04:23;;;;;;;7.87;2.80;;;9.40;99.90;;;;;;5109581;27;20201;-61
2022/04/06 06:06:51;;;;;;;6.20;2.40;;;9.50;99.90;;;;;;5104555;28;20222;-62
2022/04/06 06:09:19;;;;;;;8.63;2.57;;;9.50;99.90;;;;;;5101389;28;20203;-61
2022/04/06 06:11:48;;;;;;;7.87;2.90;;;9.40;99.90;;;;;;5097162;28;20777;-62
2022/04/06 06:14:16;;;;;;;9.60;3.07;;;9.50;99.90;;;;;;5118268;27;20729;-62
2022/04/06 06:16:45;;;;;;;9.20;2.57;;;9.50;99.90;;;;;;5096120;28;20201;-62
2022/04/06 06:19:14;;;;;;;9.83;2.73;;;9.50;99.90;;;;;;5101235;28;20222;-62
2022/04/06 06:21:43;;;;;;;8.63;2.57;;;9.50;99.90;;;;;;5106210;28;20632;-62
2022/04/06 06:24:11;;;;;;;7.40;2.33;;;9.50;99.90;;;;;;5097960;28;20562;-61
2022/04/06 06:26:42;;;;;;;8.83;2.73;;;9.50;99.90;;;;;;5103932;28;20297;-62
2022/04/06 06:29:11;;;;;;;7.20;2.40;;;9.50;99.90;;;;;;5099018;28;20305;-61
2022/04/06 06:31:40;;;;;;;6.93;2.40;;;9.50;99.90;;;;;;5100364;28;20201;-61
2022/04/06 06:34:08;;;;;;;8.80;2.17;;;9.60;99.90;;;;;;5100344;28;20210;-61
2022/04/06 06:36:39;;;;;;;5.33;2.27;;;9.50;99.90;;;;;;5110226;27;20282;-62
2022/04/06 06:39:07;;;;;;;4.80;2.20;;;9.60;99.90;;;;;;5109148;27;20220;-62
2022/04/06 06:41:35;;;;;;;6.93;2.00;;;9.60;99.90;;;;;;5107359;28;20920;-61
2022/04/06 06:44:06;;;;;;;11.73;2.73;;;9.60;99.90;;;;;;5102754;28;20203;-61
2022/04/06 06:46:35;;;;;;;4.37;2.40;;;9.60;99.90;;;;;;5104306;28;20222;-61
2022/04/06 06:53:42;;;;;;;7.80;2.17;;;9.60;99.90;;;;;;5110774;28;20173;-61
2022/04/06 06:56:11;;;;;;;2.63;2.00;;;9.60;99.90;;;;;;5108002;27;20198;-61
2022/04/06 06:58:39;;;;;;;7.90;3.03;;;9.60;99.90;;;;;;5103780;28;20244;-61
2022/04/06 07:01:07;;;;;;;9.03;2.20;;;9.60;99.90;;;;;;5109509;27;20615;-61
2022/04/06 07:03:36;;;;;;;7.53;3.00;;;9.60;99.90;;;;;;5111192;28;20234;-61
2022/04/06 07:06:04;;;;;;;11.53;3.00;;;9.60;99.90;;;;;;5109800;28;20199;-61
2022/04/06 07:08:33;;;;;;;9.90;2.63;;;9.60;99.90;;;;;;5102626;28;20282;-61
2022/04/06 07:11:03;;;;;;;10.90;2.57;;;9.60;99.90;;;;;;5104102;27;20300;-61
2022/04/06 07:13:32;;;;;;;11.47;2.43;;;9.60;99.90;;;;;;5103581;28;20202;-61
2022/04/06 07:16:00;;;;;;;7.27;2.60;;;9.60;99.90;;;;;;5103669;27;20584;-62
2022/04/06 07:18:29;;;;;;;6.03;2.37;;;9.70;99.90;;;;;;5105195;28;20209;-61
2022/04/06 07:20:59;;;;;;;5.90;2.30;;;9.80;99.90;;;;;;5117962;27;20190;-61
2022/04/06 07:23:28;;;;;;;6.10;2.53;;;9.90;99.90;;;;;;5109447;28;20290;-61
2022/04/06 07:25:56;;;;;;;5.20;2.27;;;9.90;99.90;;;;;;5112694;27;20281;-61
2022/04/06 07:28:26;;;;;;;8.80;2.77;;;10.00;99.90;;;;;;5118959;27;20259;-61
2022/04/06 07:30:54;;;;;;;4.27;2.57;;;10.10;99.90;;;;;;5121981;27;20190;-61
2022/04/06 07:33:27;;;;;;;7.73;2.63;;;10.10;99.90;;;;;;5111783;27;20194;-61
2022/04/06 07:35:55;;;;;;;3.70;2.40;;;10.20;99.90;;;;;;5126207;27;20671;-62
2022/04/06 07:38:23;;;;;;;7.32;2.60;;;10.20;99.90;;;;;;5114760;27;20508;-62
2022/04/06 07:40:52;;;;;;;8.50;2.77;;;10.20;99.90;;;;;;5112016;28;20248;-61
2022/04/06 07:43:20;;;;;;;8.80;2.83;;;10.20;99.90;;;;;;5118237;27;20576;-61
2022/04/06 07:45:50;;;;;;;5.60;2.43;;;10.10;99.90;;;;;;5107700;27;20199;-61
2022/04/06 07:48:19;;;;;;;6.17;2.47;;;10.20;99.90;;;;;;5106106;27;20199;-61
2022/04/06 07:50:52;;;;;;;9.97;3.13;;;10.20;99.90;;;;;;5103712;28;20287;-61
2022/04/06 07:53:21;;;;;;;9.73;2.63;;;10.20;99.90;;;;;;5106572;27;20199;-61
2022/04/06 07:55:50;;;;;;;10.40;2.90;;;10.20;99.90;;;;;;5101279;28;20225;-61
2022/04/06 07:58:19;;;;;;;6.73;2.80;;;10.20;99.90;;;;;;5099242;28;20215;-61
2022/04/06 08:00:48;;;;;;;3.73;2.43;;;10.20;99.90;;;;;;5107948;27;20305;-62
2022/04/06 08:03:17;;;;;;;8.83;2.70;;;10.20;99.90;;;;;;5108096;27;20187;-61
2022/04/06 08:05:46;;;;;;;9.57;2.43;;;10.20;99.90;;;;;;5108011;27;20190;-61
2022/04/06 08:08:14;;;;;;;7.57;2.57;;;10.10;99.90;;;;;;5104977;28;20218;-63
2022/04/06 08:10:42;;;;;;;4.43;2.30;;;10.20;99.90;;;;;;5117234;27;20237;-61
2022/04/06 08:13:11;;;;;;;6.33;2.50;;;10.20;99.90;;;;;;5112403;27;20290;-61
2022/04/06 08:15:40;;;;;;;6.07;2.50;;;10.30;99.90;;;;;;5103837;28;20217;-62
2022/04/06 08:18:08;;;;;;;6.97;2.67;;;10.30;99.90;;;;;;5104612;27;20282;-61
2022/04/06 08:20:38;;;;;;;4.87;2.23;;;10.30;99.90;;;;;;5108925;27;20218;-62
2022/04/06 08:23:06;;;;;;;6.97;2.73;;;10.40;99.90;;;;;;5106769;27;20205;-61
2022/04/06 08:25:35;;;;;;;9.33;2.73;;;10.40;99.90;;;;;;5105828;27;20269;-62
2022/04/06 08:28:07;;;;;;;5.67;2.47;;;10.40;99.90;;;;;;5110279;27;20317;-62
2022/04/06 08:30:39;;;;;;;8.10;2.60;;;10.50;99.90;;;;;;5104404;27;20269;-61
2022/04/06 08:33:09;;;;;;;8.13;2.57;;;10.50;99.90;;;;;;5115055;27;20281;-61
2022/04/06 08:35:40;;;;;;;9.47;2.50;;;10.60;99.90;;;;;;5101363;28;20202;-62
2022/04/06 08:38:11;;;;;;;6.07;2.43;;;10.60;99.90;;;;;;5106484;27;20791;-61
2022/04/06 08:40:42;;;;;;;7.67;2.17;;;10.60;99.90;;;;;;5108918;27;20222;-61
2022/04/06 08:43:11;;;;;;;7.60;2.50;;;10.60;99.90;;;;;;5108430;28;20289;-61
2022/04/06 08:45:40;;;;;;;5.20;2.43;;;10.70;99.90;;;;;;5109283;28;20191;-61
2022/04/06 08:48:10;;;;;;;2.97;2.23;;;10.80;99.90;;;;;;5109069;27;20294;-61
2022/04/06 08:50:40;;;;;;;6.70;2.37;;;10.90;99.90;;;;;;5113931;27;20262;-61
2022/04/06 08:53:09;;;;;;;5.17;2.20;;;10.90;99.90;;;;;;5106230;28;20248;-61
2022/04/06 08:55:39;;;;;;;5.40;2.20;;;11.10;99.90;;;;;;5105906;28;20242;-61
2022/04/06 08:58:07;;;;;;;4.60;2.57;;;11.20;99.90;;;;;;5102276;28;20285;-61
2022/04/06 09:00:35;;;;;;;4.87;2.17;;;11.10;99.90;;;;;;5113088;27;20210;-61
2022/04/06 09:03:04;;;;;;;2.20;2.10;;;11.20;99.90;;;;;;5121764;27;20269;-61
2022/04/06 09:05:32;;;;;;;5.97;2.20;;;11.20;99.90;;;;;;5101761;27;20202;-61
2022/04/06 09:08:04;;;;;;;8.07;2.70;;;11.20;99.90;;;;;;5106196;28;20197;-61
2022/04/06 09:10:41;;;;;;;2.20;2.00;;;11.30;99.90;;;;;;5107133;28;20340;-61
2022/04/06 09:13:11;;;;;;;7.83;2.33;;;11.30;99.90;;;;;;5111236;27;20194;-61
2022/04/06 09:15:41;;;;;;;5.03;2.20;;;11.30;99.90;;;;;;5106234;27;20214;-61
2022/04/06 09:18:09;;;;;;;6.10;2.03;;;11.40;99.90;;;;;;5106127;28;20229;-61
2022/04/06 09:20:38;;;;;;;4.27;1.90;;;11.40;99.90;;;;;;5106008;27;20219;-61
2022/04/06 09:23:09;;;;;;;10.07;2.40;;;11.50;99.90;;;;;;5101601;28;20194;-61
2022/04/06 09:25:38;;;;;;;8.37;2.40;;;11.60;99.90;;;;;;5108624;27;20190;-61
2022/04/06 09:28:08;;;;;;;4.23;1.90;;;11.80;99.90;;;;;;5101693;27;20249;-61
2022/04/06 09:30:40;;;;;;;7.10;2.30;;;11.80;99.90;;;;;;5110393;27;20279;-61
2022/04/06 09:33:14;;;;;;;4.87;2.23;;;11.90;99.90;;;;;;5105119;28;20234;-61
2022/04/06 09:35:43;;;;;;;4.27;2.10;;;12.00;99.90;;;;;;5110750;27;20194;-61
2022/04/06 09:38:20;;;;;;;4.03;2.20;;;12.00;99.90;;;;;;5109572;27;20229;-61
2022/04/06 09:40:48;;;;;;;4.77;2.10;;;12.00;99.90;;;;;;5105034;27;20286;-61
2022/04/06 09:43:27;;;;;;;4.43;1.97;;;12.00;99.90;;;;;;5107978;27;20199;-61
2022/04/06 09:48:53;;;;;;;7.20;2.50;;;11.70;99.90;;;;;;5097766;28;20205;-62
2022/04/06 09:51:23;;;;;;;2.50;2.30;;;11.70;99.90;;;;;;5105832;27;20191;-61
2022/04/06 09:53:54;;;;;;;5.83;2.80;;;11.70;99.90;;;;;;5104175;28;20202;-61
2022/04/06 09:56:23;;;;;;;6.87;2.80;;;11.60;99.90;;;;;;5102118;28;20853;-61
2022/04/06 09:58:51;;;;;;;9.90;2.60;;;11.40;99.90;;;;;;5105938;27;20267;-61
2022/04/06 10:01:20;;;;;;;4.20;2.47;;;11.20;99.90;;;;;;5118020;27;20210;-61
2022/04/06 10:03:53;;;;;;;3.33;2.20;;;11.10;99.90;;;;;;5109638;27;20202;-61
2022/04/06 10:06:22;;;;;;;7.50;2.80;;;11.10;99.90;;;;;;5085403;28;20204;-61
2022/04/06 10:08:52;;;;;;;3.90;2.80;;;11.00;99.90;;;;;;5103755;27;20622;-61
2022/04/06 10:11:22;;;;;;;3.53;2.90;;;11.00;99.90;;;;;;5105815;28;20187;-61
2022/04/06 10:13:52;;;;;;;4.90;2.50;;;11.00;99.90;;;;;;5107638;27;20194;-61
2022/04/06 10:16:28;;;;;;;6.73;2.77;;;11.10;99.90;;;;;;5102485;28;20719;-61
2022/04/06 10:18:58;;;;;;;4.23;2.40;;;11.20;99.90;;;;;;5102848;28;20248;-60
2022/04/06 10:21:37;;;;;;;14.93;2.50;;;11.20;99.90;;;;;;5103706;28;20242;-61
2022/04/06 10:24:21;;;;;;;6.17;2.80;;;11.30;99.90;;;;;;5105356;28;20271;-61
2022/04/06 10:27:04;;;;;;;2.60;2.37;;;11.30;99.90;;;;;;5094608;28;20191;-64
2022/04/06 10:29:53;;;;;;;3.90;2.63;;;11.40;99.90;;;;;;5104496;28;20236;-61
2022/04/06 10:32:36;;;;;;;3.50;2.80;;;11.40;99.90;;;;;;5109733;28;20236;-63
2022/04/06 10:35:25;;;;;;;6.13;2.30;;;11.40;99.90;;;;;;5104319;28;20198;-63
2022/04/06 10:38:17;;;;;;;4.73;2.93;;;11.40;99.90;;;;;;5106631;28;20199;-64
2022/04/06 10:41:00;;;;;;;6.30;3.20;;;11.30;99.90;;;;;;5114964;28;20569;-61
2022/04/06 10:43:53;;;;;;;6.10;2.90;;;11.30;99.90;;;;;;5098241;28;20213;-61
2022/04/06 10:46:38;;;;;;;9.60;3.60;;;11.30;99.90;;;;;;5105022;28;20565;-61
2022/04/06 10:49:15;;;;;;;6.63;2.87;;;11.30;99.90;;;;;;5109555;28;20285;-63
2022/04/06 10:51:48;;;;;;;11.73;3.40;;;11.30;99.90;;;;;;5101473;28;20260;-61
2022/04/06 10:54:39;;;;;;;6.47;3.10;;;11.40;99.90;;;;;;5107890;28;20195;-61
2022/04/06 10:57:08;;;;;;;9.13;3.10;;;11.50;99.90;;;;;;5100315;28;20213;-61
2022/04/06 10:59:38;;;;;;;7.60;3.40;;;11.60;99.90;;;;;;5105194;28;20203;-61
2022/04/06 11:02:17;;;;;;;4.60;3.40;;;11.70;99.90;;;;;;5122433;28;20626;-61
2022/04/06 11:04:47;;;;;;;7.83;3.53;;;11.80;99.90;;;;;;5106423;28;20233;-61
2022/04/06 11:10:06;;;;;;;11.10;3.53;;;11.90;99.90;;;;;;5100619;28;20209;-61
2022/04/06 11:10:14;;;;;;;3.97;3.13;;;11.80;99.90;;;;;;5107318;28;20699;-61
2022/04/06 11:12:58;;;;;;;6.63;3.07;;;11.70;99.90;;;;;;5099744;28;20538;-61
2022/04/06 11:15:37;;;;;;;4.63;3.00;;;11.70;99.90;;;;;;5104277;28;20222;-61
2022/04/06 11:18:42;;;;;;;3.60;3.10;;;11.70;99.90;;;;;;5099121;28;20624;-63
2022/04/06 11:21:13;;;;;;;3.10;2.57;;;11.70;99.90;;;;;;5102099;28;20214;-62
2022/04/06 11:23:42;;;;;;;7.43;3.17;;;11.60;99.90;;;;;;5106336;28;20989;-63
2022/04/06 11:26:11;;;;;;;6.63;3.07;;;11.50;99.90;;;;;;5105714;27;20194;-61
2022/04/06 11:28:40;;;;;;;3.07;2.70;;;11.50;99.90;;;;;;5105758;28;20694;-62
2022/04/06 11:31:11;;;;;;;6.77;2.80;;;11.50;99.90;;;;;;5111501;27;20203;-62
2022/04/06 11:33:40;;;;;;;5.63;2.80;;;11.50;99.90;;;;;;5110389;27;20207;-63
2022/04/06 11:36:13;;;;;;;6.50;2.80;;;11.50;99.90;;;;;;5108384;27;20195;-62
2022/04/06 11:38:42;;;;;;;5.63;2.97;;;11.50;99.90;;;;;;5106559;28;20194;-63
2022/04/06 11:41:10;;;;;;;5.53;2.80;;;11.60;99.90;;;;;;5107225;27;20225;-62
2022/04/06 11:43:41;;;;;;;3.87;3.23;;;11.70;99.90;;;;;;5111553;27;20701;-63
2022/04/06 11:46:11;;;;;;;3.87;3.07;;;11.80;99.90;;;;;;5114077;27;20365;-63
2022/04/06 11:48:40;;;;;;;5.30;3.03;;;11.80;99.90;;;;;;5109946;28;21064;-63
2022/04/06 11:51:09;;;;;;;6.57;2.80;;;11.90;99.90;;;;;;5113436;27;20270;-63
2022/04/06 11:53:37;;;;;;;4.30;2.63;;;11.90;99.90;;;;;;5110985;27;20186;-62
2022/04/06 11:56:06;;;;;;;8.00;2.77;;;11.80;99.90;;;;;;5110119;27;20199;-63
2022/04/06 11:58:36;;;;;;;2.70;2.50;;;11.70;99.90;;;;;;5108448;28;20896;-63
2022/04/06 12:01:07;;;;;;;6.43;2.60;;;11.60;99.90;;;;;;5113484;27;20249;-63
2022/04/06 12:03:38;;;;;;;5.03;3.20;;;11.40;99.90;;;;;;5110193;28;20195;-63
2022/04/06 12:06:09;;;;;;;4.23;3.00;;;11.40;99.90;;;;;;5110934;28;20243;-63
2022/04/06 12:08:40;;;;;;;2.87;2.53;;;11.50;99.90;;;;;;5109945;27;20222;-63
2022/04/06 12:11:08;;;;;;;2.93;2.57;;;11.50;99.90;;;;;;5100188;28;20677;-63
2022/04/06 12:13:38;;;;;;;4.27;2.87;;;11.50;99.90;;;;;;5109317;27;20284;-63
2022/04/06 12:16:09;;;;;;;3.53;3.00;;;11.60;99.90;;;;;;5107440;27;20199;-63
2022/04/06 12:18:41;;;;;;;5.97;3.50;;;11.50;99.90;;;;;;5107998;27;20232;-62
2022/04/06 12:21:19;;;;;;;4.07;2.90;;;11.40;99.90;;;;;;5100524;28;20314;-62
2022/04/06 12:23:48;;;;;;;3.10;2.90;;;11.50;99.90;;;;;;5119240;27;20206;-62
2022/04/06 12:26:17;;;;;;;7.63;3.10;;;11.50;99.90;;;;;;5106329;28;20217;-63
2022/04/06 12:28:49;;;;;;;5.70;3.23;;;11.50;99.90;;;;;;5107686;28;20256;-63
2022/04/06 12:31:17;;;;;;;4.47;3.07;;;11.50;99.90;;;;;;5109415;27;20195;-63
2022/04/06 12:33:50;;;;;;;5.60;2.83;;;11.50;99.90;;;;;;5109628;27;20191;-63
2022/04/06 12:36:19;;;;;;;2.63;2.53;;;11.60;99.90;;;;;;5105069;27;20259;-63
2022/04/06 12:39:00;;;;;;;5.33;2.97;;;11.60;99.90;;;;;;5099663;28;20207;-62
2022/04/06 12:41:32;;;;;;;2.87;2.57;;;11.60;99.90;;;;;;5113854;27;20245;-63
2022/04/06 12:44:02;;;;;;;3.27;3.10;;;11.60;99.90;;;;;;5104128;27;20210;-62
2022/04/06 12:46:38;;;;;;;4.43;2.80;;;11.70;99.90;;;;;;5104630;27;20184;-63
2022/04/06 12:49:32;;;;;;;3.37;3.07;;;11.70;99.90;;;;;;5110064;27;20275;-63
2022/04/06 12:52:13;;;;;;;3.93;3.10;;;11.60;99.90;;;;;;5099547;28;20190;-63
2022/04/06 12:54:45;;;;;;;4.67;4.23;;;11.70;99.90;;;;;;5101562;27;20240;-62
2022/04/06 12:57:17;;;;;;;3.70;3.40;;;11.60;99.90;;;;;;5100480;27;20283;-62
2022/04/06 12:59:54;;;;;;;7.83;4.17;;;11.60;99.90;;;;;;5103756;28;20203;-62
2022/04/06 13:02:28;;;;;;;4.50;3.30;;;11.50;99.90;;;;;;5102205;28;20222;-62
2022/04/06 13:05:01;;;;;;;6.83;3.20;;;11.60;99.90;;;;;;5104598;27;20198;-63
2022/04/06 13:07:31;;;;;;;4.03;3.60;;;11.50;99.90;;;;;;5098773;27;20202;-62
2022/04/06 13:10:21;;;;;;;3.40;3.30;;;11.50;99.90;;;;;;5102795;27;20206;-63
2022/04/06 13:12:50;;;;;;;4.40;3.70;;;11.50;99.90;;;;;;5099915;27;20596;-62
2022/04/06 13:15:19;;;;;;;4.20;3.80;;;11.60;99.90;;;;;;5107880;27;20203;-62
2022/04/06 13:17:49;;;;;;;4.43;4.07;;;11.60;99.90;;;;;;5100987;27;20260;-62